Crosby, North Dakota
Current Conditions -  °F | °C
As of 2:35 PM on Sunday 21 Dec 2014 (Local Time) from KD50 Reporting Station
Scattered Clouds Scattered Clouds  
Wind Chill: 30°   Ceiling: Unl
Heat Index: 36°   Visibility: 10mi
Dew Point: 30°   Wind: 7mph
Humidity: 81%   Direction: 120°ESE
Pressure: 29.34"   Gusts: NA
Location:  48.91°N, 103.29°W
Report Text: KD50 212035Z AUTO 12006KT 10SM SCT085 02/M01 A2934 RMK AO2
Loading
Personal Weather Stations






























Interactive Weather Map New forecast layout! Learn more

10-Day Weather Forecast

Advertisements
Track Severe Weather on mobile